createdAt,value
2018-04-02T00:00:15.786Z,970.58
2018-04-02T00:01:15.769Z,970.57
2018-04-02T00:02:15.754Z,970.56
2018-04-02T00:03:15.734Z,970.57
2018-04-02T00:04:15.724Z,970.59
2018-04-02T00:05:15.705Z,970.54
2018-04-02T00:06:15.685Z,970.55
2018-04-02T00:07:15.665Z,970.53
2018-04-02T00:08:15.650Z,970.52
2018-04-02T00:09:15.632Z,970.50
2018-04-02T00:10:15.615Z,970.51
2018-04-02T00:11:15.599Z,970.48
2018-04-02T00:12:15.582Z,970.42
2018-04-02T00:13:15.567Z,970.44
2018-04-02T00:14:15.544Z,970.45
2018-04-02T00:15:15.528Z,970.49
2018-04-02T00:16:15.510Z,970.44
2018-04-02T00:17:15.493Z,970.46
2018-04-02T00:18:15.482Z,970.46
2018-04-02T00:19:15.465Z,970.47
2018-04-02T00:20:15.441Z,970.47
2018-04-02T00:21:15.424Z,970.42
2018-04-02T00:22:15.407Z,970.44
2018-04-02T00:23:15.399Z,970.44
2018-04-02T00:24:15.374Z,970.44
2018-04-02T00:25:15.354Z,970.47
2018-04-02T00:26:15.338Z,970.47
2018-04-02T00:27:15.325Z,970.48
2018-04-02T00:28:15.304Z,970.43
2018-04-02T00:29:15.289Z,970.45
2018-04-02T00:30:15.277Z,970.44
2018-04-02T00:31:15.250Z,970.40
2018-04-02T00:32:15.237Z,970.38
2018-04-02T00:33:15.220Z,970.38
2018-04-02T00:34:15.207Z,970.38
2018-04-02T00:35:15.191Z,970.31
2018-04-02T00:36:15.167Z,970.36
2018-04-02T00:37:15.148Z,970.34
2018-04-02T00:38:15.133Z,970.32
2018-04-02T00:39:15.117Z,970.30
2018-04-02T00:40:15.100Z,970.34
2018-04-02T00:41:15.077Z,970.29
2018-04-02T00:42:15.064Z,970.26
2018-04-02T00:43:15.050Z,970.25
2018-04-02T00:44:15.025Z,970.23
2018-04-02T00:45:15.017Z,970.22
2018-04-02T00:46:14.996Z,970.25
2018-04-02T00:47:14.983Z,970.22
2018-04-02T00:48:14.964Z,970.20
2018-04-02T00:49:14.938Z,970.16
2018-04-02T00:50:14.929Z,970.17
2018-04-02T00:51:14.906Z,970.16
2018-04-02T00:52:14.886Z,970.12
2018-04-02T00:53:14.869Z,970.16
2018-04-02T00:54:14.857Z,970.14
2018-04-02T00:55:14.836Z,970.14
2018-04-02T00:56:14.821Z,970.14
2018-04-02T00:57:14.802Z,970.13
2018-04-02T00:58:14.795Z,970.12
2018-04-02T00:59:14.774Z,970.14
2018-04-02T01:00:14.752Z,970.10
2018-04-02T01:01:14.730Z,970.11
2018-04-02T01:02:14.719Z,970.13
2018-04-02T01:03:14.697Z,970.07
2018-04-02T01:04:14.678Z,970.12
2018-04-02T01:05:14.670Z,970.09
2018-04-02T01:06:14.642Z,970.05
2018-04-02T01:07:14.626Z,970.06
2018-04-02T01:08:14.607Z,970.06
2018-04-02T01:09:14.595Z,970.02
2018-04-02T01:10:14.572Z,969.99
2018-04-02T01:11:14.556Z,970.01
2018-04-02T01:12:14.539Z,969.96
2018-04-02T01:13:14.532Z,969.95
2018-04-02T01:14:14.508Z,969.97
2018-04-02T01:15:14.491Z,969.95
2018-04-02T01:16:14.466Z,969.96
2018-04-02T01:17:14.450Z,969.94
2018-04-02T01:18:14.431Z,969.96
2018-04-02T01:19:14.421Z,969.94
2018-04-02T01:20:14.395Z,969.93
2018-04-02T01:21:14.380Z,969.94
2018-04-02T01:22:14.361Z,969.94
2018-04-02T01:23:14.343Z,969.96
2018-04-02T01:24:14.337Z,969.99
2018-04-02T01:25:14.308Z,969.98
2018-04-02T01:26:14.293Z,969.95
2018-04-02T01:27:14.326Z,969.94
2018-04-02T01:28:14.254Z,969.97
2018-04-02T01:29:14.241Z,969.98
2018-04-02T01:30:14.226Z,969.99
2018-04-02T01:31:14.202Z,969.97
2018-04-02T01:32:14.191Z,969.95
2018-04-02T01:33:14.167Z,969.93
2018-04-02T01:34:14.156Z,969.91
2018-04-02T01:35:14.134Z,969.92
2018-04-02T01:36:14.113Z,969.89
2018-04-02T01:37:14.103Z,969.93
2018-04-02T01:38:14.082Z,969.93
2018-04-02T01:39:14.060Z,969.94
2018-04-02T01:40:14.042Z,969.96
2018-04-02T01:41:14.025Z,969.94
2018-04-02T01:42:14.015Z,969.93
2018-04-02T01:43:13.992Z,969.92
2018-04-02T01:44:13.984Z,969.88
2018-04-02T01:45:13.964Z,969.90
2018-04-02T01:46:13.939Z,969.89
2018-04-02T01:47:13.924Z,969.88
2018-04-02T01:48:13.908Z,969.87
2018-04-02T01:49:13.884Z,969.85
2018-04-02T01:50:13.868Z,969.82
2018-04-02T01:51:13.849Z,969.80
2018-04-02T01:52:13.837Z,969.80
2018-04-02T01:53:13.821Z,969.74
2018-04-02T01:54:13.795Z,969.72
2018-04-02T01:55:13.777Z,969.70
2018-04-02T01:56:13.758Z,969.71
2018-04-02T01:57:13.742Z,969.73
2018-04-02T01:58:13.724Z,969.75
2018-04-02T01:59:13.713Z,969.69
2018-04-02T02:00:13.693Z,969.69
2018-04-02T02:01:13.675Z,969.72
2018-04-02T02:02:13.652Z,969.69
2018-04-02T02:03:13.648Z,969.66
2018-04-02T02:04:13.618Z,969.66
2018-04-02T02:05:13.603Z,969.68
2018-04-02T02:06:13.581Z,969.68
2018-04-02T02:07:13.570Z,969.67
2018-04-02T02:08:13.551Z,969.70
2018-04-02T02:09:13.527Z,969.68
2018-04-02T02:10:13.510Z,969.71
2018-04-02T02:11:13.551Z,969.68
2018-04-02T02:12:13.475Z,969.73
2018-04-02T02:13:13.462Z,969.73
2018-04-02T02:14:13.439Z,969.72
2018-04-02T02:15:13.423Z,969.69
2018-04-02T02:16:13.404Z,969.72
2018-04-02T02:17:13.390Z,969.68
2018-04-02T02:18:13.370Z,969.67
2018-04-02T02:19:13.356Z,969.70
2018-04-02T02:20:13.331Z,969.66
2018-04-02T02:21:13.320Z,969.65
2018-04-02T02:22:13.300Z,969.62
2018-04-02T02:23:13.277Z,969.61
2018-04-02T02:24:13.265Z,969.61
2018-04-02T02:25:13.249Z,969.62
2018-04-02T02:26:13.224Z,969.66
2018-04-02T02:27:13.211Z,969.67
2018-04-02T02:28:13.188Z,969.67
2018-04-02T02:29:13.171Z,969.67
2018-04-02T02:30:13.154Z,969.64
2018-04-02T02:31:13.136Z,969.64
2018-04-02T02:32:13.128Z,969.64
2018-04-02T02:33:13.100Z,969.64
2018-04-02T02:34:13.082Z,969.64
2018-04-02T02:35:13.063Z,969.64
2018-04-02T02:36:13.050Z,969.56
2018-04-02T02:37:13.028Z,969.57
2018-04-02T02:38:13.011Z,969.54
2018-04-02T02:39:13.002Z,969.52
2018-04-02T02:40:12.976Z,969.49
2018-04-02T02:41:12.955Z,969.52
2018-04-02T02:42:12.943Z,969.55
2018-04-02T02:43:12.926Z,969.54
2018-04-02T02:44:12.899Z,969.53
2018-04-02T02:45:12.887Z,969.56
2018-04-02T02:46:12.866Z,969.50
2018-04-02T02:47:12.856Z,969.49
2018-04-02T02:48:12.828Z,969.52
2018-04-02T02:49:12.817Z,969.51
2018-04-02T02:50:12.798Z,969.51
2018-04-02T02:51:12.774Z,969.55
2018-04-02T02:52:12.755Z,969.52
2018-04-02T02:53:12.740Z,969.55
2018-04-02T02:54:12.720Z,969.52
2018-04-02T02:55:12.703Z,969.54
2018-04-02T02:56:12.692Z,969.52
2018-04-02T02:57:12.666Z,969.50
2018-04-02T02:58:12.650Z,969.53
2018-04-02T02:59:12.631Z,969.52
2018-04-02T03:00:12.611Z,969.49
2018-04-02T03:01:12.595Z,969.51
2018-04-02T03:02:12.575Z,969.44
2018-04-02T03:03:12.563Z,969.42
2018-04-02T03:04:12.539Z,969.38
2018-04-02T03:05:12.529Z,969.33
2018-04-02T03:06:12.505Z,969.33
2018-04-02T03:07:12.489Z,969.32
2018-04-02T03:08:12.467Z,969.25
2018-04-02T03:09:12.455Z,969.27
2018-04-02T03:10:12.439Z,969.22
2018-04-02T03:11:12.423Z,969.23
2018-04-02T03:12:12.403Z,969.22
2018-04-02T03:13:12.384Z,969.18
2018-04-02T03:14:12.366Z,969.15
2018-04-02T03:15:12.347Z,969.14
2018-04-02T03:16:12.324Z,969.10
2018-04-02T03:17:12.307Z,969.08
2018-04-02T03:18:12.287Z,969.10
2018-04-02T03:19:12.275Z,969.06
2018-04-02T03:20:12.251Z,969.06
2018-04-02T03:21:12.235Z,969.06
2018-04-02T03:22:12.222Z,969.04
2018-04-02T03:23:12.201Z,969.06
2018-04-02T03:24:12.186Z,969.04
2018-04-02T03:25:12.165Z,969.03
2018-04-02T03:26:12.143Z,969.04
2018-04-02T03:27:12.129Z,969.12
2018-04-02T03:28:12.105Z,969.10
2018-04-02T03:29:12.090Z,969.03
2018-04-02T03:30:12.072Z,969.08
2018-04-02T03:31:12.054Z,969.10
2018-04-02T03:32:12.035Z,969.13
2018-04-02T03:33:12.018Z,969.14
2018-04-02T03:34:12.003Z,969.09
2018-04-02T03:35:11.986Z,969.07
2018-04-02T03:36:11.961Z,969.08
2018-04-02T03:37:11.945Z,969.11
2018-04-02T03:38:11.927Z,969.10
2018-04-02T03:39:11.912Z,969.06
2018-04-02T03:40:11.890Z,969.05
2018-04-02T03:41:11.871Z,969.04
2018-04-02T03:42:11.857Z,969.03
2018-04-02T03:43:11.837Z,969.02
2018-04-02T03:44:11.824Z,969.02
2018-04-02T03:45:11.797Z,969.04
2018-04-02T03:46:11.785Z,969.03
2018-04-02T03:47:11.763Z,969.04
2018-04-02T03:48:11.745Z,969.06
2018-04-02T03:49:11.727Z,969.03
2018-04-02T03:50:11.711Z,969.05
2018-04-02T03:51:11.693Z,969.06
2018-04-02T03:52:11.681Z,969.07
2018-04-02T03:53:11.659Z,969.09
2018-04-02T03:54:11.650Z,969.07
2018-04-02T03:55:11.626Z,969.04
2018-04-02T03:56:11.598Z,969.02
2018-04-02T03:57:11.588Z,969.01
2018-04-02T03:58:11.569Z,969.04
2018-04-02T03:59:11.547Z,969.04
2018-04-02T04:00:11.532Z,969.03
2018-04-02T04:01:11.512Z,968.98
2018-04-02T04:02:11.492Z,968.94
2018-04-02T04:03:11.482Z,968.91
2018-04-02T04:04:11.456Z,968.90
2018-04-02T04:05:11.434Z,968.87
2018-04-02T04:06:11.423Z,968.87
2018-04-02T04:07:11.408Z,968.87
2018-04-02T04:08:11.380Z,968.91
2018-04-02T04:09:11.363Z,968.88
2018-04-02T04:10:11.349Z,968.88
2018-04-02T04:11:11.323Z,968.88
2018-04-02T04:12:11.311Z,968.86
2018-04-02T04:13:11.286Z,968.83
2018-04-02T04:14:11.269Z,968.82
2018-04-02T04:15:11.250Z,968.75
2018-04-02T04:16:11.231Z,968.76
2018-04-02T04:17:11.213Z,968.77
2018-04-02T04:18:11.194Z,968.76
2018-04-02T04:19:11.177Z,968.74
2018-04-02T04:20:11.159Z,968.77
2018-04-02T04:21:11.142Z,968.79
2018-04-02T04:22:11.123Z,968.80
2018-04-02T04:23:11.104Z,968.80
2018-04-02T04:24:11.085Z,968.77
2018-04-02T04:25:11.067Z,968.78
2018-04-02T04:26:11.049Z,968.79
2018-04-02T04:27:11.033Z,968.80
2018-04-02T04:28:11.016Z,968.81
2018-04-02T04:29:10.992Z,968.84
2018-04-02T04:30:10.974Z,968.78
2018-04-02T04:31:10.956Z,968.79
2018-04-02T04:32:10.936Z,968.75
2018-04-02T04:33:10.930Z,968.78
2018-04-02T04:34:10.900Z,968.75
2018-04-02T04:35:10.887Z,968.77
2018-04-02T04:36:10.864Z,968.78
2018-04-02T04:37:10.843Z,968.74
2018-04-02T04:38:10.828Z,968.78
2018-04-02T04:39:10.816Z,968.79
2018-04-02T04:40:10.791Z,968.75
2018-04-02T04:41:10.773Z,968.78
2018-04-02T04:42:10.754Z,968.74
2018-04-02T04:43:10.735Z,968.68
2018-04-02T04:44:10.720Z,968.73
2018-04-02T04:45:10.696Z,968.71
2018-04-02T04:46:10.677Z,968.69
2018-04-02T04:47:10.665Z,968.68
2018-04-02T04:48:10.640Z,968.72
2018-04-02T04:49:10.622Z,968.71
2018-04-02T04:50:10.603Z,968.68
2018-04-02T04:51:10.587Z,968.66
2018-04-02T04:52:10.568Z,968.68
2018-04-02T04:53:10.551Z,968.63
2018-04-02T04:54:10.529Z,968.68
2018-04-02T04:55:10.515Z,968.64
2018-04-02T04:56:10.498Z,968.67
2018-04-02T04:57:10.478Z,968.65
2018-04-02T04:58:10.464Z,968.62
2018-04-02T04:59:10.442Z,968.64
2018-04-02T05:00:10.433Z,968.65
2018-04-02T05:01:10.406Z,968.65
2018-04-02T05:02:10.382Z,968.71
2018-04-02T05:03:10.360Z,968.70
2018-04-02T05:04:10.348Z,968.72
2018-04-02T05:05:10.328Z,968.68
2018-04-02T05:06:10.315Z,968.74
2018-04-02T05:07:10.292Z,968.72
2018-04-02T05:08:10.269Z,968.72
2018-04-02T05:09:10.252Z,968.71
2018-04-02T05:10:10.231Z,968.73
2018-04-02T05:11:10.217Z,968.77
2018-04-02T05:12:10.199Z,968.72
2018-04-02T05:13:10.173Z,968.69
2018-04-02T05:14:10.157Z,968.68
2018-04-02T05:15:10.143Z,968.66
2018-04-02T05:16:10.127Z,968.69
2018-04-02T05:17:10.101Z,968.71
2018-04-02T05:18:10.082Z,968.68
2018-04-02T05:19:10.062Z,968.67
2018-04-02T05:20:10.044Z,968.60
2018-04-02T05:21:10.028Z,968.62
2018-04-02T05:22:10.013Z,968.64
2018-04-02T05:23:10.001Z,968.60
2018-04-02T05:24:10.007Z,968.65
2018-04-02T05:25:09.958Z,968.64
2018-04-02T05:26:09.935Z,968.63
2018-04-02T05:27:09.914Z,968.67
2018-04-02T05:28:09.900Z,968.61
2018-04-02T05:29:09.879Z,968.64
2018-04-02T05:30:09.859Z,968.64
2018-04-02T05:31:09.850Z,968.68
2018-04-02T05:32:09.826Z,968.67
2018-04-02T05:33:09.808Z,968.71
2018-04-02T05:34:09.785Z,968.71
2018-04-02T05:35:09.771Z,968.70
2018-04-02T05:36:09.746Z,968.70
2018-04-02T05:37:09.729Z,968.72
2018-04-02T05:38:09.714Z,968.65
2018-04-02T05:39:09.699Z,968.69
2018-04-02T05:40:09.675Z,968.71
2018-04-02T05:41:09.657Z,968.71
2018-04-02T05:42:09.636Z,968.68
2018-04-02T05:43:09.626Z,968.72
2018-04-02T05:44:09.599Z,968.75
2018-04-02T05:45:09.589Z,968.78
2018-04-02T05:46:09.571Z,968.76
2018-04-02T05:47:09.546Z,968.76
2018-04-02T05:48:09.526Z,968.75
2018-04-02T05:49:09.507Z,968.73
2018-04-02T05:50:09.494Z,968.76
2018-04-02T05:51:09.472Z,968.71
2018-04-02T05:52:09.458Z,968.69
2018-04-02T05:53:09.433Z,968.67
2018-04-02T05:54:09.414Z,968.70
2018-04-02T05:55:09.398Z,968.70
2018-04-02T05:56:09.379Z,968.64
2018-04-02T05:57:09.365Z,968.65
2018-04-02T05:58:09.345Z,968.64
2018-04-02T05:59:09.328Z,968.64
2018-04-02T06:00:09.308Z,968.65
2018-04-02T06:01:09.287Z,968.61
2018-04-02T06:02:09.269Z,968.60
2018-04-02T06:03:09.259Z,968.57
2018-04-02T06:04:09.235Z,968.57
2018-04-02T06:05:09.252Z,968.53
2018-04-02T06:06:09.196Z,968.48
2018-04-02T06:07:09.178Z,968.55
2018-04-02T06:08:09.161Z,968.57
2018-04-02T06:09:09.159Z,968.55
2018-04-02T06:10:09.128Z,968.54
2018-04-02T06:11:09.114Z,968.57
2018-04-02T06:12:09.087Z,968.55
2018-04-02T06:13:09.072Z,968.58
2018-04-02T06:14:09.052Z,968.61
2018-04-02T06:15:09.033Z,968.61
2018-04-02T06:16:09.020Z,968.65
2018-04-02T06:17:08.999Z,968.60
2018-04-02T06:18:08.990Z,968.57
2018-04-02T06:19:08.962Z,968.59
2018-04-02T06:20:08.942Z,968.59
2018-04-02T06:21:08.937Z,968.57
2018-04-02T06:22:08.909Z,968.60
2018-04-02T06:23:08.896Z,968.57
2018-04-02T06:24:08.876Z,968.54
2018-04-02T06:25:08.856Z,968.51
2018-04-02T06:26:08.837Z,968.59
2018-04-02T06:27:08.818Z,968.58
2018-04-02T06:28:08.802Z,968.58
2018-04-02T06:29:08.783Z,968.56
2018-04-02T06:30:08.765Z,968.53
2018-04-02T06:31:08.753Z,968.55
2018-04-02T06:32:08.729Z,968.52
2018-04-02T06:33:08.713Z,968.53
2018-04-02T06:34:08.699Z,968.54
2018-04-02T06:35:08.683Z,968.46
2018-04-02T06:36:08.658Z,968.45
2018-04-02T06:37:08.697Z,968.52
2018-04-02T06:38:08.623Z,968.49
2018-04-02T06:39:08.608Z,968.51
2018-04-02T06:40:08.595Z,968.53
2018-04-02T06:41:08.574Z,968.54
2018-04-02T06:42:08.555Z,968.51
2018-04-02T06:43:08.536Z,968.56
2018-04-02T06:44:08.523Z,968.50
2018-04-02T06:45:08.532Z,968.56
2018-04-02T06:46:08.492Z,968.56
2018-04-02T06:47:08.472Z,968.57
2018-04-02T06:48:08.457Z,968.53
2018-04-02T06:49:08.433Z,968.57
2018-04-02T06:50:08.425Z,968.58
2018-04-02T06:51:08.402Z,968.57
2018-04-02T06:52:08.393Z,968.59
2018-04-02T06:53:08.367Z,968.61
2018-04-02T06:54:08.350Z,968.60
2018-04-02T06:55:08.337Z,968.65
2018-04-02T06:56:08.321Z,968.65
2018-04-02T06:57:08.300Z,968.71
2018-04-02T06:58:08.299Z,968.73
2018-04-02T06:59:08.277Z,968.69
2018-04-02T07:00:08.251Z,968.71
2018-04-02T07:01:08.244Z,968.69
2018-04-02T07:02:08.218Z,968.73
2018-04-02T07:03:08.207Z,968.68
2018-04-02T07:04:08.199Z,968.69
2018-04-02T07:05:08.168Z,968.71
2018-04-02T07:06:08.159Z,968.74
2018-04-02T07:07:08.138Z,968.70
2018-04-02T07:08:08.121Z,968.72
2018-04-02T07:09:08.107Z,968.73
2018-04-02T07:10:08.088Z,968.71
2018-04-02T07:11:08.073Z,968.71
2018-04-02T07:12:08.057Z,968.70
2018-04-02T07:13:08.043Z,968.71
2018-04-02T07:14:08.025Z,968.71
2018-04-02T07:15:08.017Z,968.73
2018-04-02T07:16:07.998Z,968.68
2018-04-02T07:17:07.976Z,968.68
2018-04-02T07:18:07.964Z,968.71
2018-04-02T07:19:07.951Z,968.69
2018-04-02T07:20:07.928Z,968.69
2018-04-02T07:21:07.911Z,968.70
2018-04-02T07:22:07.903Z,968.72
2018-04-02T07:23:07.909Z,968.68
2018-04-02T07:24:07.864Z,968.72
2018-04-02T07:25:07.854Z,968.69
2018-04-02T07:26:07.836Z,968.72
2018-04-02T07:27:07.813Z,968.71
2018-04-02T07:28:07.802Z,968.68
2018-04-02T07:29:07.788Z,968.68
2018-04-02T07:30:07.768Z,968.68
2018-04-02T07:31:07.750Z,968.69
2018-04-02T07:32:07.742Z,968.66
2018-04-02T07:33:07.718Z,968.65
2018-04-02T07:34:07.707Z,968.63
2018-04-02T07:35:07.689Z,968.61
2018-04-02T07:36:07.670Z,968.65
2018-04-02T07:37:07.654Z,968.60
2018-04-02T07:38:07.638Z,968.59
2018-04-02T07:39:07.622Z,968.61
2018-04-02T07:40:07.606Z,968.63
2018-04-02T07:41:07.593Z,968.62
2018-04-02T07:42:07.575Z,968.65
2018-04-02T07:43:07.560Z,968.62
2018-04-02T07:44:07.542Z,968.60
2018-04-02T07:45:07.529Z,968.56
2018-04-02T07:46:07.512Z,968.58
2018-04-02T07:47:07.503Z,968.53
2018-04-02T07:48:07.478Z,968.52
2018-04-02T07:49:07.466Z,968.52
2018-04-02T07:50:07.448Z,968.50
2018-04-02T07:51:07.438Z,968.47
2018-04-02T07:52:07.416Z,968.51
2018-04-02T07:53:07.403Z,968.46
2018-04-02T07:54:07.386Z,968.49
2018-04-02T07:55:07.371Z,968.46
2018-04-02T07:56:07.354Z,968.46
2018-04-02T07:57:07.391Z,968.45
2018-04-02T07:58:07.326Z,968.47
2018-04-02T07:59:07.310Z,968.45
2018-04-02T08:00:07.293Z,968.46
2018-04-02T08:01:07.280Z,968.42
2018-04-02T08:02:07.264Z,968.40
2018-04-02T08:03:07.251Z,968.43
2018-04-02T08:04:07.240Z,968.43
2018-04-02T08:05:07.220Z,968.46
2018-04-02T08:06:07.203Z,968.47
2018-04-02T08:07:07.190Z,968.44
2018-04-02T08:08:07.174Z,968.44
2018-04-02T08:09:07.164Z,968.41
2018-04-02T08:10:07.143Z,968.39
2018-04-02T08:11:07.128Z,968.36
2018-04-02T08:12:07.172Z,968.33
2018-04-02T08:13:07.103Z,968.30
2018-04-02T08:14:07.091Z,968.34
2018-04-02T08:15:07.073Z,968.33
2018-04-02T08:16:07.061Z,968.36
2018-04-02T08:17:07.039Z,968.34
2018-04-02T08:18:07.095Z,968.38
2018-04-02T08:19:07.012Z,968.37
2018-04-02T08:20:06.995Z,968.39
2018-04-02T08:21:06.989Z,968.42
2018-04-02T08:22:06.969Z,968.41
2018-04-02T08:23:06.953Z,968.41
2018-04-02T08:24:06.940Z,968.43
2018-04-02T08:25:06.929Z,968.41
2018-04-02T08:26:06.910Z,968.38
2018-04-02T08:27:06.894Z,968.41
2018-04-02T08:28:06.886Z,968.40
2018-04-02T08:29:06.865Z,968.43
2018-04-02T08:30:06.850Z,968.41
2018-04-02T08:31:06.838Z,968.40
2018-04-02T08:32:06.822Z,968.45
2018-04-02T08:33:06.818Z,968.37
2018-04-02T08:34:06.797Z,968.39
2018-04-02T08:35:06.780Z,968.41
2018-04-02T08:36:06.767Z,968.37
2018-04-02T08:37:06.752Z,968.41
2018-04-02T08:38:06.746Z,968.40
2018-04-02T08:39:06.728Z,968.42
2018-04-02T08:40:06.713Z,968.41
2018-04-02T08:41:06.705Z,968.34
2018-04-02T08:42:06.684Z,968.38
2018-04-02T08:43:06.670Z,968.37
2018-04-02T08:44:06.661Z,968.41
2018-04-02T08:45:06.650Z,968.40
2018-04-02T08:46:06.638Z,968.38
2018-04-02T08:47:06.617Z,968.36
2018-04-02T08:48:06.606Z,968.36
2018-04-02T08:49:06.591Z,968.35
2018-04-02T08:50:06.577Z,968.30
2018-04-02T08:51:06.563Z,968.29
2018-04-02T08:52:06.551Z,968.22
2018-04-02T08:53:06.537Z,968.24
2018-04-02T08:54:06.531Z,968.22
2018-04-02T08:55:06.516Z,968.21
2018-04-02T08:56:06.496Z,968.23
2018-04-02T08:57:06.488Z,968.18
2018-04-02T08:58:06.473Z,968.19
2018-04-02T08:59:06.464Z,968.19
2018-04-02T09:00:06.446Z,968.20
2018-04-02T09:01:06.433Z,968.20
2018-04-02T09:02:06.422Z,968.20
2018-04-02T09:03:06.407Z,968.19
2018-04-02T09:04:06.396Z,968.20
2018-04-02T09:05:06.381Z,968.17
2018-04-02T09:06:06.369Z,968.17
2018-04-02T09:07:06.377Z,968.18
2018-04-02T09:08:06.345Z,968.18
2018-04-02T09:09:06.330Z,968.17
2018-04-02T09:10:06.325Z,968.17
2018-04-02T09:11:06.315Z,968.19
2018-04-02T09:12:06.295Z,968.17
2018-04-02T09:13:06.283Z,968.17
2018-04-02T09:14:06.274Z,968.17
2018-04-02T09:15:06.258Z,968.15
2018-04-02T09:16:06.246Z,968.18
2018-04-02T09:17:06.234Z,968.17
2018-04-02T09:18:06.223Z,968.25
2018-04-02T09:19:06.210Z,968.20
2018-04-02T09:20:06.197Z,968.18
2018-04-02T09:21:06.191Z,968.15
2018-04-02T09:22:06.176Z,968.17
2018-04-02T09:23:06.201Z,968.11
2018-04-02T09:24:06.151Z,968.16
2018-04-02T09:25:06.139Z,968.04
2018-04-02T09:26:06.127Z,968.08
2018-04-02T09:27:06.121Z,968.03
2018-04-02T09:28:06.104Z,968.03
2018-04-02T09:29:06.099Z,967.99
2018-04-02T09:30:06.082Z,967.95
2018-04-02T09:31:06.079Z,967.96
2018-04-02T09:32:06.058Z,967.90
2018-04-02T09:33:06.049Z,967.93
2018-04-02T09:34:06.039Z,967.87
2018-04-02T09:35:06.026Z,967.91
2018-04-02T09:36:06.013Z,967.92
2018-04-02T09:37:06.003Z,967.89
2018-04-02T09:38:06.002Z,967.85
2018-04-02T09:39:05.986Z,967.86
2018-04-02T09:40:05.971Z,967.86
2018-04-02T09:41:05.960Z,967.89
2018-04-02T09:42:05.948Z,967.81
2018-04-02T09:43:05.940Z,967.84
2018-04-02T09:44:05.929Z,967.83
2018-04-02T09:45:05.912Z,967.81
2018-04-02T09:46:05.902Z,967.80
2018-04-02T09:47:05.903Z,967.76
2018-04-02T09:48:05.883Z,967.74
2018-04-02T09:49:05.866Z,967.72
2018-04-02T09:50:05.858Z,967.70
2018-04-02T09:51:05.850Z,967.71
2018-04-02T09:52:05.835Z,967.62
2018-04-02T09:53:05.822Z,967.59
2018-04-02T09:54:05.870Z,967.59
2018-04-02T09:55:05.802Z,967.60
2018-04-02T09:56:05.794Z,967.56
2018-04-02T09:57:05.778Z,967.60
2018-04-02T09:58:05.769Z,967.59
2018-04-02T09:59:05.758Z,967.58
2018-04-02T10:00:05.744Z,967.54
2018-04-02T10:01:05.730Z,967.53
2018-04-02T10:02:05.719Z,967.52
2018-04-02T10:03:05.711Z,967.49
2018-04-02T10:04:05.706Z,967.48
2018-04-02T10:05:05.854Z,967.42
2018-04-02T10:06:05.683Z,967.39
2018-04-02T10:07:05.662Z,967.38
2018-04-02T10:08:05.661Z,967.35
2018-04-02T10:09:05.640Z,967.35
2018-04-02T10:10:05.705Z,967.30
2018-04-02T10:11:05.617Z,967.30
2018-04-02T10:12:05.603Z,967.30
2018-04-02T10:13:05.596Z,967.24
2018-04-02T10:14:05.587Z,967.21
2018-04-02T10:15:05.578Z,967.24
2018-04-02T10:16:05.568Z,967.14
2018-04-02T10:17:05.552Z,967.17
2018-04-02T10:18:05.538Z,967.18
2018-04-02T10:19:05.532Z,967.17
2018-04-02T10:20:05.520Z,967.20
2018-04-02T10:21:05.510Z,967.16
2018-04-02T10:22:05.503Z,967.14
2018-04-02T10:23:05.486Z,967.13
2018-04-02T10:24:05.597Z,967.05
2018-04-02T10:25:05.461Z,967.07
2018-04-02T10:26:05.454Z,967.04
2018-04-02T10:27:05.440Z,967.04
2018-04-02T10:28:05.431Z,967.04
2018-04-02T10:29:05.420Z,967.00
2018-04-02T10:30:05.409Z,967.02
2018-04-02T10:31:05.412Z,966.93
2018-04-02T10:32:05.393Z,966.98
2018-04-02T10:33:05.378Z,967.01
2018-04-02T10:34:05.370Z,966.95
2018-04-02T10:35:05.357Z,966.96
2018-04-02T10:36:05.349Z,967.01
2018-04-02T10:37:05.340Z,967.01
2018-04-02T10:38:05.325Z,967.02
2018-04-02T10:39:05.317Z,966.95
2018-04-02T10:40:05.310Z,966.96
2018-04-02T10:41:05.300Z,966.95
2018-04-02T10:42:05.285Z,966.95
2018-04-02T10:43:05.276Z,966.93
2018-04-02T10:44:05.264Z,966.93
2018-04-02T10:45:05.255Z,966.91
2018-04-02T10:46:05.248Z,966.89
2018-04-02T10:47:05.238Z,966.88
2018-04-02T10:48:05.225Z,966.90
2018-04-02T10:49:05.217Z,966.82
2018-04-02T10:50:05.206Z,966.76
2018-04-02T10:51:05.205Z,966.80
2018-04-02T10:52:05.186Z,966.81
2018-04-02T10:53:05.176Z,966.77
2018-04-02T10:54:05.172Z,966.76
2018-04-02T10:55:05.164Z,966.73
2018-04-02T10:56:05.147Z,966.68
2018-04-02T10:57:05.143Z,966.69
2018-04-02T10:58:05.142Z,966.69
2018-04-02T10:59:05.122Z,966.70
2018-04-02T11:00:05.114Z,966.67
2018-04-02T11:01:05.098Z,966.65
2018-04-02T11:02:05.091Z,966.66
2018-04-02T11:03:05.080Z,966.61
2018-04-02T11:04:05.081Z,966.58
2018-04-02T11:05:05.062Z,966.55
2018-04-02T11:06:05.054Z,966.55
2018-04-02T11:07:05.045Z,966.50
2018-04-02T11:08:05.033Z,966.50
2018-04-02T11:09:05.032Z,966.49
2018-04-02T11:10:05.016Z,966.47
2018-04-02T11:11:05.008Z,966.48
2018-04-02T11:12:04.998Z,966.45
2018-04-02T11:13:04.996Z,966.45
2018-04-02T11:14:04.981Z,966.40
2018-04-02T11:15:04.978Z,966.43
2018-04-02T11:16:04.965Z,966.39
2018-04-02T11:17:04.960Z,966.39
2018-04-02T11:18:04.952Z,966.42
2018-04-02T11:19:04.938Z,966.39
2018-04-02T11:20:04.927Z,966.36
2018-04-02T11:21:04.922Z,966.37
2018-04-02T11:22:04.910Z,966.35
2018-04-02T11:23:04.908Z,966.28
2018-04-02T11:24:04.899Z,966.29
2018-04-02T11:25:04.883Z,966.20
2018-04-02T11:26:04.885Z,966.19
2018-04-02T11:27:04.866Z,966.24
2018-04-02T11:28:04.857Z,966.19
2018-04-02T11:29:04.851Z,966.15
2018-04-02T11:30:04.842Z,966.11
2018-04-02T11:31:04.832Z,966.12
2018-04-02T11:32:04.833Z,966.10
2018-04-02T11:33:04.823Z,966.07
2018-04-02T11:34:04.813Z,966.10
2018-04-02T11:35:04.800Z,966.05
2018-04-02T11:36:04.794Z,966.01
2018-04-02T11:37:04.779Z,966.04
2018-04-02T11:38:04.779Z,966.01
2018-04-02T11:39:04.766Z,965.98
2018-04-02T11:40:04.758Z,965.96
2018-04-02T11:41:04.752Z,965.95
2018-04-02T11:42:04.741Z,965.93
2018-04-02T11:43:04.739Z,965.91
2018-04-02T11:44:04.723Z,965.90
2018-04-02T11:45:04.724Z,965.90
2018-04-02T11:46:04.707Z,965.87
2018-04-02T11:47:04.699Z,965.89
2018-04-02T11:48:04.699Z,965.91
2018-04-02T11:49:04.684Z,965.81
2018-04-02T11:50:04.679Z,965.79
2018-04-02T11:51:04.671Z,965.76
2018-04-02T11:52:04.657Z,965.74
2018-04-02T11:53:04.654Z,965.72
2018-04-02T11:54:04.647Z,965.70
2018-04-02T11:55:04.634Z,965.71
2018-04-02T11:56:04.630Z,965.73
2018-04-02T11:57:04.617Z,965.70
2018-04-02T11:58:04.611Z,965.70
2018-04-02T11:59:04.606Z,965.67
2018-04-02T12:00:04.593Z,965.65
2018-04-02T12:01:04.592Z,965.66
2018-04-02T12:02:04.577Z,965.60
2018-04-02T12:03:04.572Z,965.60
2018-04-02T12:04:04.562Z,965.61
2018-04-02T12:05:04.555Z,965.61
2018-04-02T12:06:04.556Z,965.55
2018-04-02T12:07:04.544Z,965.52
2018-04-02T12:08:04.533Z,965.53
2018-04-02T12:09:04.527Z,965.54
2018-04-02T12:10:04.522Z,965.53
2018-04-02T12:11:04.510Z,965.53
2018-04-02T12:12:04.510Z,965.48
2018-04-02T12:13:04.495Z,965.49
2018-04-02T12:14:04.496Z,965.49
2018-04-02T12:15:04.490Z,965.44
2018-04-02T12:16:04.478Z,965.43
2018-04-02T12:17:04.472Z,965.40
2018-04-02T12:18:04.466Z,965.43
2018-04-02T12:19:04.455Z,965.37
2018-04-02T12:20:04.450Z,965.37
2018-04-02T12:21:04.479Z,965.39
2018-04-02T12:22:04.438Z,965.38
2018-04-02T12:23:04.424Z,965.36
2018-04-02T12:24:04.416Z,965.33
2018-04-02T12:25:04.408Z,965.30
2018-04-02T12:26:04.427Z,965.31
2018-04-02T12:27:04.394Z,965.30
2018-04-02T12:28:04.388Z,965.32